UARR

Details ICAO UARR (URA)
Name URALSK
Region Kazakhstan and Kyrgyzstan
Timezone Asia/Oral (UTC+5.0)
Plans Departing 22
Arriving 22
Stats Elevation 125 ft / 38 m (AMSL)
Location 51.150880° 51.541458°
Runways 1
Magnetic Variation 10.922° E
Sunrise 2017-12-12 04:29:57 UTC / 2017-12-12 09:29:57 Local
Sunset 2017-12-12 12:27:55 UTC / 2017-12-12 17:27:55 Local
Advertisement - Login to hide

Runways

ID Width Length Bearing (true) Bearing (mag) Surface Threshold Offset Overrun Length
04 138 ft / 42 m 7,858 ft / 2,395 m 51.88° 40.96° Concrete 0 ft / 0 m 0 ft / 0 m
22 138 ft / 42 m 7,858 ft / 2,395 m 231.90° 220.98° Concrete 0 ft / 0 m 0 ft / 0 m

Approach Navaids

Runway Type Ident Frequency Range Bearing (true) Bearing (mag) Slope Elevation
22 Localiser IUR 109.70 MHz 18 nm / 33 km 230.24° 219.32° - 125 ft / 38 m (AMSL)
22 Glidescope IUR 109.70 MHz 10 nm / 19 km 231.89° 220.97° 2.40° 125 ft / 38 m (AMSL)

Map

Weather


0- 5 10 15 20 25 30 35+ Temperature / ° C

Clouds and Precipitation
Forecast for 2017-12-12 18:00 UTC. Updated an hour ago

Ground ~20,000 ft ~40,000 ft Winds

METAR

UARR 121630Z 15007MPS 9999 BKN005 OVC016 M04/M05 Q1030 R22/420355 NOSIG RMK QBB160 QFE769/1026

TAF

Not found

Frequencies

Tower 119.70 MHz TWR
Warning: Do not use this data for real-world aviation or navigation. No guarantee of current accuracy is given.